createdAt,value
2022-08-07T00:01:44.185Z,102595.20
2022-08-07T00:04:28.330Z,102593.45
2022-08-07T00:07:09.399Z,102591.48
2022-08-07T00:10:04.737Z,102586.98
2022-08-07T00:13:52.328Z,102586.74
2022-08-07T00:16:31.738Z,102579.60
2022-08-07T00:19:21.653Z,102581.93
2022-08-07T00:22:03.278Z,102584.30
2022-08-07T00:24:44.427Z,102582.79
2022-08-07T00:27:22.621Z,102578.77
2022-08-07T00:29:57.307Z,102579.67
2022-08-07T00:32:32.463Z,102585.36
2022-08-07T00:35:29.730Z,102580.61
2022-08-07T00:38:31.563Z,102584.31
2022-08-07T00:41:10.104Z,102583.32
2022-08-07T00:44:02.061Z,102585.34
2022-08-07T00:46:44.888Z,102587.83
2022-08-07T00:50:20.271Z,102588.30
2022-08-07T00:52:28.078Z,102584.17
2022-08-07T00:55:00.094Z,102579.37
2022-08-07T00:57:59.918Z,102577.37
2022-08-07T01:00:31.666Z,102578.14
2022-08-07T01:03:14.626Z,102579.10
2022-08-07T01:05:54.492Z,102578.33
2022-08-07T01:08:38.562Z,102578.23
2022-08-07T01:12:04.551Z,102571.32
2022-08-07T01:14:10.403Z,102575.70
2022-08-07T01:16:52.441Z,102571.62
2022-08-07T01:19:53.899Z,102572.27
2022-08-07T01:23:00.830Z,102565.14
2022-08-07T01:26:01.243Z,102564.61
2022-08-07T01:28:34.321Z,102561.79
2022-08-07T01:31:41.602Z,102563.91
2022-08-07T01:34:15.161Z,102562.28
2022-08-07T01:36:58.099Z,102566.33
2022-08-07T01:39:40.666Z,102567.02
2022-08-07T01:42:57.602Z,102565.23
2022-08-07T01:45:54.533Z,102561.95
2022-08-07T01:48:32.956Z,102559.61
2022-08-07T01:52:03.853Z,102555.67
2022-08-07T01:54:36.504Z,102553.73
2022-08-07T01:57:29.788Z,102556.27
2022-08-07T02:00:14.576Z,102549.85
2022-08-07T02:03:12.172Z,102548.77
2022-08-07T02:06:01.049Z,102546.45
2022-08-07T02:08:42.443Z,102544.23
2022-08-07T02:12:03.055Z,102542.00
2022-08-07T02:14:45.255Z,102544.00
2022-08-07T02:17:31.717Z,102543.27
2022-08-07T02:20:17.415Z,102547.07
2022-08-07T02:23:23.864Z,102542.05
2022-08-07T02:26:31.380Z,102541.89
2022-08-07T02:29:02.314Z,102541.61
2022-08-07T02:31:40.618Z,102538.73
2022-08-07T02:34:17.947Z,102538.05
2022-08-07T02:37:08.129Z,102531.65
2022-08-07T02:40:30.034Z,102529.30
2022-08-07T02:43:39.502Z,102530.23
2022-08-07T02:46:18.409Z,102530.09
2022-08-07T02:49:00.077Z,102526.72
2022-08-07T02:51:52.010Z,102526.70
2022-08-07T02:54:27.935Z,102526.30
2022-08-07T02:57:30.904Z,102527.58
2022-08-07T03:00:39.232Z,102530.56
2022-08-07T03:03:50.980Z,102533.59
2022-08-07T03:06:44.817Z,102532.48
2022-08-07T03:09:52.590Z,102529.73
2022-08-07T03:12:36.114Z,102525.56
2022-08-07T03:15:47.798Z,102523.09
2022-08-07T03:18:36.090Z,102522.60
2022-08-07T03:26:09.257Z,102528.24
2022-08-07T03:30:12.820Z,102528.27
2022-08-07T03:33:40.123Z,102525.34
2022-08-07T03:45:43.503Z,102526.10
2022-08-07T03:49:02.231Z,102531.28
2022-08-07T03:51:55.228Z,102530.23
2022-08-07T03:54:54.414Z,102529.95
2022-08-07T03:58:33.924Z,102531.59
2022-08-07T04:00:36.345Z,102529.91
2022-08-07T04:03:11.597Z,102534.31
2022-08-07T04:05:46.118Z,102538.14
2022-08-07T04:08:31.762Z,102539.36
2022-08-07T04:12:25.747Z,102540.01
2022-08-07T04:14:11.008Z,102537.22
2022-08-07T04:17:21.585Z,102533.52
2022-08-07T04:20:19.808Z,102526.36
2022-08-07T04:23:07.938Z,102528.03
2022-08-07T04:25:55.246Z,102525.90
2022-08-07T04:28:28.367Z,102523.70
2022-08-07T04:31:10.403Z,102520.48
2022-08-07T04:33:56.662Z,102515.70
2022-08-07T04:36:43.777Z,102513.35
2022-08-07T04:39:49.787Z,102511.45
2022-08-07T04:42:34.759Z,102508.88
2022-08-07T04:45:11.734Z,102509.61
2022-08-07T04:48:11.073Z,102508.58
2022-08-07T04:51:18.372Z,102499.95
2022-08-07T04:54:05.240Z,102501.48
2022-08-07T04:58:12.043Z,102504.08
2022-08-07T05:00:14.549Z,102503.82
2022-08-07T05:03:00.577Z,102507.40
2022-08-07T05:05:53.799Z,102508.70
2022-08-07T05:08:59.546Z,102506.13
2022-08-07T05:11:57.144Z,102502.60
2022-08-07T05:14:58.180Z,102498.51
2022-08-07T05:18:01.592Z,102504.81
2022-08-07T05:21:00.718Z,102510.16
2022-08-07T05:23:39.909Z,102514.10
2022-08-07T05:26:23.946Z,102513.23
2022-08-07T05:29:05.400Z,102512.61
2022-08-07T05:31:53.935Z,102517.95
2022-08-07T05:34:41.902Z,102514.55
2022-08-07T05:37:47.105Z,102518.83
2022-08-07T05:40:54.893Z,102522.16
2022-08-07T05:44:07.969Z,102524.36
2022-08-07T05:46:52.324Z,102526.02
2022-08-07T05:49:40.935Z,102522.09
2022-08-07T05:52:32.381Z,102518.73
2022-08-07T05:56:03.145Z,102520.16
2022-08-07T05:59:10.076Z,102524.55
2022-08-07T06:01:50.626Z,102523.06
2022-08-07T06:04:30.481Z,102521.94
2022-08-07T06:07:23.031Z,102519.30
2022-08-07T06:10:11.195Z,102521.20
2022-08-07T06:13:16.251Z,102525.05
2022-08-07T06:16:10.350Z,102524.43
2022-08-07T06:18:57.111Z,102528.25
2022-08-07T06:22:15.936Z,102532.29
2022-08-07T06:24:53.199Z,102531.38
2022-08-07T06:28:00.115Z,102527.70
2022-08-07T06:30:50.679Z,102531.23
2022-08-07T06:33:40.158Z,102529.64
2022-08-07T06:36:34.920Z,102527.73
2022-08-07T06:40:12.843Z,102530.46
2022-08-07T06:42:39.568Z,102529.02
2022-08-07T06:45:24.632Z,102527.00
2022-08-07T06:48:02.453Z,102519.58
2022-08-07T06:50:54.706Z,102521.23
2022-08-07T06:55:29.493Z,102528.16
2022-08-07T06:57:14.439Z,102529.80
2022-08-07T07:00:18.021Z,102521.70
2022-08-07T07:03:00.999Z,102521.34
2022-08-07T07:06:03.981Z,102513.84
2022-08-07T07:08:46.685Z,102517.55
2022-08-07T07:12:08.691Z,102516.17
2022-08-07T07:14:26.050Z,102514.92
2022-08-07T07:17:39.162Z,102514.98
2022-08-07T07:20:39.341Z,102520.69
2022-08-07T07:24:08.642Z,102520.27
2022-08-07T07:31:02.555Z,102521.79
2022-08-07T07:33:37.546Z,102520.20
2022-08-07T07:36:20.543Z,102522.85
2022-08-07T07:38:58.446Z,102526.30
2022-08-07T07:41:50.365Z,102523.23
2022-08-07T07:44:50.304Z,102516.77
2022-08-07T07:47:24.037Z,102512.20
2022-08-07T07:50:34.081Z,102517.01
2022-08-07T07:52:51.490Z,102519.85
2022-08-07T07:55:27.566Z,102518.20
2022-08-07T07:58:09.506Z,102515.11
2022-08-07T08:00:53.565Z,102516.13
2022-08-07T08:04:09.642Z,102513.30
2022-08-07T08:06:29.280Z,102514.48
2022-08-07T08:09:07.999Z,102509.23
2022-08-07T08:11:59.951Z,102512.70
2022-08-07T08:14:36.083Z,102507.70
2022-08-07T08:17:57.607Z,102501.02
2022-08-07T08:20:17.219Z,102496.20
2022-08-07T08:23:14.428Z,102496.59
2022-08-07T08:26:07.255Z,102498.05
2022-08-07T08:28:44.782Z,102497.53
2022-08-07T08:31:29.845Z,102495.86
2022-08-07T08:34:04.542Z,102488.47
2022-08-07T08:36:46.147Z,102486.62
2022-08-07T08:39:18.022Z,102482.77
2022-08-07T08:41:58.483Z,102485.60
2022-08-07T08:44:44.491Z,102484.39
2022-08-07T08:47:25.032Z,102481.75
2022-08-07T08:50:06.092Z,102482.03
2022-08-07T08:52:54.265Z,102473.59
2022-08-07T08:55:55.580Z,102471.23
2022-08-07T08:58:34.102Z,102471.85
2022-08-07T09:01:15.101Z,102473.08
2022-08-07T09:04:00.572Z,102471.48
2022-08-07T09:06:42.671Z,102467.06
2022-08-07T09:09:41.032Z,102475.13
2022-08-07T09:12:31.736Z,102472.28
2022-08-07T09:16:25.297Z,102473.17
2022-08-07T09:18:36.758Z,102474.00
2022-08-07T09:21:58.232Z,102469.23
2022-08-07T09:24:58.530Z,102478.11
2022-08-07T09:27:30.761Z,102466.18
2022-08-07T09:30:08.815Z,102469.05
2022-08-07T09:32:59.040Z,102473.97
2022-08-07T09:36:03.839Z,102479.88
2022-08-07T09:38:49.881Z,102484.05
2022-08-07T09:41:43.167Z,102480.89
2022-08-07T09:47:25.192Z,102480.92
2022-08-07T09:47:58.963Z,102468.87
2022-08-07T09:50:47.748Z,102470.44
2022-08-07T09:53:26.116Z,102473.80
2022-08-07T09:56:41.992Z,102469.73
2022-08-07T09:59:46.188Z,102472.33
2022-08-07T10:03:08.074Z,102471.83
2022-08-07T10:06:17.335Z,102463.50
2022-08-07T10:09:13.295Z,102458.96
2022-08-07T10:12:15.464Z,102449.58
2022-08-07T10:15:08.793Z,102444.04
2022-08-07T10:18:10.035Z,102445.91
2022-08-07T10:20:55.837Z,102443.91
2022-08-07T10:24:05.693Z,102452.11
2022-08-07T10:26:58.128Z,102448.20
2022-08-07T10:30:01.886Z,102444.17
2022-08-07T10:33:07.081Z,102449.23
2022-08-07T10:36:17.185Z,102446.85
2022-08-07T10:38:59.984Z,102445.33
2022-08-07T10:41:52.310Z,102441.83
2022-08-07T10:44:38.519Z,102441.25
2022-08-07T10:47:51.408Z,102443.52
2022-08-07T10:50:29.006Z,102443.76
2022-08-07T10:53:12.775Z,102438.02
2022-08-07T10:56:02.379Z,102436.52
2022-08-07T10:58:59.705Z,102433.40
2022-08-07T11:02:05.272Z,102436.38
2022-08-07T11:05:10.521Z,102437.26
2022-08-07T11:08:11.868Z,102439.73
2022-08-07T11:10:59.772Z,102442.89
2022-08-07T11:14:44.469Z,102445.17
2022-08-07T11:17:07.372Z,102446.41
2022-08-07T11:19:47.008Z,102441.95
2022-08-07T11:22:37.215Z,102445.77
2022-08-07T11:25:24.723Z,102435.98
2022-08-07T11:28:04.492Z,102434.91
2022-08-07T11:30:46.842Z,102431.77
2022-08-07T11:33:53.994Z,102428.61
2022-08-07T11:36:45.304Z,102429.72
2022-08-07T11:39:56.832Z,102426.19
2022-08-07T11:42:31.607Z,102422.55
2022-08-07T11:45:20.556Z,102425.83
2022-08-07T11:48:34.195Z,102423.89
2022-08-07T11:51:44.945Z,102416.55
2022-08-07T11:54:33.118Z,102414.73
2022-08-07T11:57:18.991Z,102420.90
2022-08-07T12:00:11.996Z,102426.27
2022-08-07T12:03:41.566Z,102421.97
2022-08-07T12:06:50.744Z,102415.30
2022-08-07T12:09:35.563Z,102416.67
2022-08-07T12:12:13.987Z,102411.52
2022-08-07T12:14:56.405Z,102413.02
2022-08-07T12:17:59.661Z,102411.96
2022-08-07T12:20:46.460Z,102409.51
2022-08-07T12:24:05.893Z,102412.27
2022-08-07T12:26:40.750Z,102412.33
2022-08-07T12:29:38.618Z,102409.05
2022-08-07T12:32:16.891Z,102407.61
2022-08-07T12:34:56.711Z,102400.70
2022-08-07T12:38:11.610Z,102402.44
2022-08-07T12:40:46.606Z,102402.29
2022-08-07T12:44:03.749Z,102404.36
2022-08-07T12:46:37.301Z,102410.60
2022-08-07T12:49:39.589Z,102409.85
2022-08-07T12:52:29.245Z,102401.40
2022-08-07T12:55:18.189Z,102397.97
2022-08-07T12:58:00.820Z,102395.90
2022-08-07T13:00:50.156Z,102391.28
2022-08-07T13:04:03.203Z,102392.80
2022-08-07T13:07:01.924Z,102381.09
2022-08-07T13:10:20.869Z,102378.69
2022-08-07T13:13:08.265Z,102380.31
2022-08-07T13:15:58.780Z,102380.81
2022-08-07T13:18:44.769Z,102376.55
2022-08-07T13:21:51.164Z,102376.54
2022-08-07T13:24:33.305Z,102372.06
2022-08-07T13:27:13.050Z,102373.73
2022-08-07T13:29:58.082Z,102375.36
2022-08-07T13:32:41.235Z,102373.48
2022-08-07T13:35:22.269Z,102374.32
2022-08-07T13:38:01.208Z,102369.73
2022-08-07T13:40:42.361Z,102376.02
2022-08-07T13:43:21.719Z,102379.45
2022-08-07T13:46:12.489Z,102372.66
2022-08-07T13:48:58.606Z,102378.17
2022-08-07T13:52:22.598Z,102380.02
2022-08-07T13:54:40.826Z,102375.09
2022-08-07T13:57:38.234Z,102361.37
2022-08-07T14:00:26.648Z,102363.56
2022-08-07T14:03:00.943Z,102361.14
2022-08-07T14:05:38.090Z,102358.02
2022-08-07T14:08:26.807Z,102359.84
2022-08-07T14:11:15.395Z,102355.17
2022-08-07T14:13:56.200Z,102348.29
2022-08-07T14:16:33.068Z,102347.60
2022-08-07T14:19:17.650Z,102353.34
2022-08-07T14:22:12.467Z,102349.92
2022-08-07T14:24:53.534Z,102349.20
2022-08-07T14:30:32.557Z,102358.15
2022-08-07T14:33:06.685Z,102352.50
2022-08-07T14:35:45.141Z,102355.58
2022-08-07T14:38:31.250Z,102354.23
2022-08-07T14:47:08.654Z,102338.48
2022-08-07T14:49:57.513Z,102336.25
2022-08-07T14:52:37.785Z,102342.05
2022-08-07T14:55:17.775Z,102341.13
2022-08-07T14:57:58.739Z,102341.73
2022-08-07T15:00:36.304Z,102345.17
2022-08-07T15:03:19.779Z,102339.23
2022-08-07T15:06:04.085Z,102335.83
2022-08-07T15:08:49.950Z,102338.23
2022-08-07T15:11:53.806Z,102327.94
2022-08-07T15:14:32.075Z,102328.54
2022-08-07T15:17:18.196Z,102321.66
2022-08-07T15:20:31.381Z,102312.08
2022-08-07T15:23:00.305Z,102310.98
2022-08-07T15:25:56.428Z,102311.53
2022-08-07T15:28:41.076Z,102306.16
2022-08-07T15:31:57.897Z,102298.20
2022-08-07T15:34:18.971Z,102297.54
2022-08-07T15:37:02.942Z,102292.20
2022-08-07T15:42:52.374Z,102298.86
2022-08-07T15:45:58.322Z,102294.98
2022-08-07T15:48:36.774Z,102293.30
2022-08-07T15:54:25.338Z,102290.69
2022-08-07T15:57:02.442Z,102289.44
2022-08-07T15:59:38.935Z,102289.13
2022-08-07T16:02:15.833Z,102288.56
2022-08-07T16:04:50.815Z,102284.43
2022-08-07T16:08:29.181Z,102285.50
2022-08-07T16:10:26.643Z,102286.52
2022-08-07T16:13:57.971Z,102282.67
2022-08-07T16:16:47.884Z,102279.74
2022-08-07T16:19:59.466Z,102281.54
2022-08-07T16:22:55.363Z,102277.61
2022-08-07T16:25:53.025Z,102278.47
2022-08-07T16:30:06.569Z,102273.98
2022-08-07T16:31:57.213Z,102269.10
2022-08-07T16:34:48.508Z,102264.72
2022-08-07T16:38:05.229Z,102263.33
2022-08-07T16:41:02.299Z,102267.29
2022-08-07T16:44:04.102Z,102262.32
2022-08-07T16:47:18.828Z,102265.57
2022-08-07T16:50:20.440Z,102264.51
2022-08-07T16:54:02.412Z,102267.56
2022-08-07T16:56:37.549Z,102268.12
2022-08-07T16:59:23.866Z,102264.68
2022-08-07T17:02:03.665Z,102264.48
2022-08-07T17:04:51.176Z,102258.45
2022-08-07T17:07:55.430Z,102263.06
2022-08-07T17:10:38.571Z,102260.37
2022-08-07T17:14:17.976Z,102257.83
2022-08-07T17:16:55.578Z,102259.29
2022-08-07T17:20:02.380Z,102261.61
2022-08-07T17:22:37.987Z,102262.96
2022-08-07T17:25:20.285Z,102266.01
2022-08-07T17:28:19.858Z,102266.70
2022-08-07T17:31:16.311Z,102264.45
2022-08-07T17:34:15.232Z,102259.63
2022-08-07T17:37:00.008Z,102260.29
2022-08-07T17:40:07.953Z,102258.23
2022-08-07T17:42:59.123Z,102255.63
2022-08-07T17:45:42.243Z,102261.08
2022-08-07T17:48:31.257Z,102255.23
2022-08-07T17:51:11.570Z,102259.20
2022-08-07T17:54:06.566Z,102256.02
2022-08-07T17:56:50.012Z,102260.04
2022-08-07T17:59:35.447Z,102256.45
2022-08-07T18:02:12.791Z,102256.50
2022-08-07T18:05:20.759Z,102255.16
2022-08-07T18:08:15.404Z,102254.79
2022-08-07T18:12:07.026Z,102255.04
2022-08-07T18:13:50.981Z,102253.42
2022-08-07T18:16:34.246Z,102254.94
2022-08-07T18:21:06.660Z,102251.27
2022-08-07T18:22:33.913Z,102257.81
2022-08-07T18:25:23.869Z,102262.39
2022-08-07T18:28:21.534Z,102261.50
2022-08-07T18:31:10.222Z,102260.63
2022-08-07T18:34:35.748Z,102263.20
2022-08-07T18:38:55.182Z,102265.27
2022-08-07T18:40:42.453Z,102266.56
2022-08-07T18:43:36.757Z,102268.38
2022-08-07T18:46:27.328Z,102269.41
2022-08-07T18:50:31.385Z,102275.45
2022-08-07T18:52:34.631Z,102277.73
2022-08-07T18:55:42.331Z,102277.36
2022-08-07T18:58:22.365Z,102279.69
2022-08-07T19:01:05.863Z,102283.80
2022-08-07T19:03:52.119Z,102282.19
2022-08-07T19:06:38.132Z,102285.80
2022-08-07T19:09:55.595Z,102287.19
2022-08-07T19:12:19.906Z,102291.35
2022-08-07T19:16:02.837Z,102288.41
2022-08-07T19:18:34.502Z,102298.59
2022-08-07T19:21:43.803Z,102301.27
2022-08-07T19:24:30.130Z,102303.14
2022-08-07T19:28:29.287Z,102306.61
2022-08-07T19:31:05.748Z,102309.72
2022-08-07T19:33:00.254Z,102314.86
2022-08-07T19:35:36.006Z,102316.00
2022-08-07T19:38:16.722Z,102317.77
2022-08-07T19:40:51.627Z,102319.54
2022-08-07T19:43:43.990Z,102323.85
2022-08-07T19:46:30.925Z,102318.00
2022-08-07T19:49:07.240Z,102324.05
2022-08-07T19:51:50.687Z,102330.19
2022-08-07T19:54:31.419Z,102329.89
2022-08-07T19:58:00.892Z,102330.83
2022-08-07T20:00:08.941Z,102336.03
2022-08-07T20:02:51.634Z,102341.16
2022-08-07T20:05:29.190Z,102342.68
2022-08-07T20:08:32.744Z,102348.05
2022-08-07T20:11:09.989Z,102353.70
2022-08-07T20:13:46.581Z,102360.85
2022-08-07T20:16:35.547Z,102360.86
2022-08-07T20:19:14.617Z,102364.83
2022-08-07T20:21:48.449Z,102369.23
2022-08-07T20:24:28.879Z,102370.02
2022-08-07T20:27:07.629Z,102374.35
2022-08-07T20:29:59.429Z,102376.75
2022-08-07T20:32:41.198Z,102378.48
2022-08-07T20:35:26.441Z,102376.71
2022-08-07T20:38:00.858Z,102376.49
2022-08-07T20:40:40.562Z,102377.13
2022-08-07T20:43:19.797Z,102376.10
2022-08-07T20:46:27.011Z,102377.94
2022-08-07T20:49:53.902Z,102380.96
2022-08-07T20:51:52.164Z,102385.68
2022-08-07T20:54:32.191Z,102383.90
2022-08-07T20:57:10.332Z,102387.73
2022-08-07T21:00:07.667Z,102386.28
2022-08-07T21:03:04.009Z,102380.41
2022-08-07T21:05:55.876Z,102380.16
2022-08-07T21:08:40.738Z,102378.05
2022-08-07T21:11:21.931Z,102378.62
2022-08-07T21:14:31.896Z,102374.49
2022-08-07T21:18:03.121Z,102372.19
2022-08-07T21:20:06.142Z,102374.04
2022-08-07T21:22:51.236Z,102377.09
2022-08-07T21:25:39.224Z,102379.09
2022-08-07T21:28:19.016Z,102381.27
2022-08-07T21:32:42.523Z,102388.61
2022-08-07T21:34:46.215Z,102388.05
2022-08-07T21:37:58.384Z,102385.38
2022-08-07T21:40:39.384Z,102383.52
2022-08-07T21:43:22.823Z,102384.05
2022-08-07T21:46:10.300Z,102381.75
2022-08-07T21:48:57.442Z,102383.89
2022-08-07T21:51:51.104Z,102382.84
2022-08-07T21:54:34.133Z,102382.13
2022-08-07T21:57:31.299Z,102382.88
2022-08-07T22:00:23.226Z,102389.09
2022-08-07T22:03:09.831Z,102389.79
2022-08-07T22:05:51.143Z,102388.80
2022-08-07T22:08:24.949Z,102391.65
2022-08-07T22:11:04.802Z,102391.76
2022-08-07T22:13:52.899Z,102396.14
2022-08-07T22:16:46.585Z,102391.20
2022-08-07T22:19:29.887Z,102390.70
2022-08-07T22:22:20.870Z,102393.48
2022-08-07T22:25:13.605Z,102393.86
2022-08-07T22:28:29.897Z,102388.86
2022-08-07T22:30:58.752Z,102393.77
2022-08-07T22:33:57.168Z,102400.12
2022-08-07T22:36:46.303Z,102405.66
2022-08-07T22:39:28.262Z,102406.70
2022-08-07T22:42:19.822Z,102399.59
2022-08-07T22:45:10.927Z,102403.40
2022-08-07T22:48:54.886Z,102404.60
2022-08-07T22:51:41.428Z,102402.61
2022-08-07T22:54:35.044Z,102412.98
2022-08-07T22:57:40.983Z,102417.73
2022-08-07T23:00:21.515Z,102419.23
2022-08-07T23:03:28.374Z,102417.38
2022-08-07T23:06:27.146Z,102424.17
2022-08-07T23:10:04.904Z,102421.94
2022-08-07T23:12:38.787Z,102428.14
2022-08-07T23:16:04.317Z,102428.67
2022-08-07T23:18:26.482Z,102430.99
2022-08-07T23:21:29.906Z,102433.88
2022-08-07T23:24:38.690Z,102428.36
2022-08-07T23:28:20.473Z,102439.16
2022-08-07T23:30:45.769Z,102439.33
2022-08-07T23:34:21.159Z,102441.69
2022-08-07T23:37:20.193Z,102438.35
2022-08-07T23:40:05.743Z,102440.12
2022-08-07T23:42:53.313Z,102445.15
2022-08-07T23:46:03.454Z,102448.96
2022-08-07T23:49:16.834Z,102442.88
2022-08-07T23:52:59.667Z,102443.19
2022-08-07T23:54:57.055Z,102446.92
2022-08-07T23:57:37.852Z,102449.52
